EFOUEFKS

Guest
Details From EFOU - Oulu
To EFKS - Kuusamo
Flight Number -
Tags generated
Created
Modified
Stats Distance 116 nm / 215 km
Max Altitude 9,500 ft / 2,896 m
Waypoints 4
Social Downloads 0
Likes 0
Share VATSIM

Download

Looking for another format? Having issues loading an existing format? Contact us
Advertisement - Login to hide

Notes

Basic altitude profile: - Ascent Rate: 2500ft/min - Ascent Speed: 250kts - Cruise Altitude: 35000ft - Cruise Speed: 420kts - Descent Rate: 1500ft/min - Descent Speed: 250kts Options: - Use NATs: yes - Use PACOTS: yes - Use low airways: yes - Use high airways: yes

Route

EFOU SISPO T89 TOKLA EFKS

ID Type Via Altitude Latitude Longitude Leg Dist Tot Dist Heading (true) Name
O EFOU APT - 0 ft / 0 m 64.93006˚ 25.35456˚ - 0 nm - Oulu
SISPO FIX - 8,000 ft / 2,438 m 65.14361˚ 26.08306˚ 22 nm 22 nm 55° / 56° -
TOKLA FIX T89 (AWY-LO) 9,500 ft / 2,896 m 65.86861˚ 28.74944˚ 79 nm 101 nm 56° / 58° -
O EFKS APT - 0 ft / 0 m 65.98740˚ 29.23980˚ 13 nm 115 nm 59° / 60° Kuusamo

Altitude Profile

Advertisement - Login to hide

EFOU

Details ICAO EFOU (OUL)
Name Oulu
Region Finland
Timezone Europe/Helsinki (UTC+3.0)
Stats Elevation 47 ft / 14 m (AMSL)
Location 64.930059° 25.354560°
Runways 1
Magnetic Variation 10.742° E

METAR

EFOU 252050Z AUTO 22006KT 190V260 CAVOK 13/06 Q1024

Decode

TAF

TAF EFOU 252028Z 2521/2621 23009KT CAVOK BECMG 2609/2611 32012KT

Decode

Departure Runways

ID Width Length Bearing (true) Bearing (mag) Surface Threshold Offset Overrun Length
12 197 ft / 60 m 8,180 ft / 2,493 m 121.01° 110.27° Asphalt 0 ft / 0 m 200 ft / 61 m
30 197 ft / 60 m 8,180 ft / 2,493 m 301.05° 290.31° Asphalt 0 ft / 0 m 200 ft / 61 m

EFKS

Details ICAO EFKS (KAO)
Name Kuusamo
Region Finland
Timezone Europe/Helsinki (UTC+3.0)
Stats Elevation 866 ft / 264 m (AMSL)
Location 65.987404° 29.239798°
Runways 1
Magnetic Variation 12.972° E

METAR

EFKS 252050Z AUTO VRB02KT CAVOK 13/05 Q1022

Decode

TAF

Not found

Destination Runways

ID Width Length Bearing (true) Bearing (mag) Surface Threshold Offset Overrun Length
12 148 ft / 45 m 8,046 ft / 2,452 m 132.21° 119.24° Asphalt 131 ft / 40 m 197 ft / 60 m
30 148 ft / 45 m 8,046 ft / 2,452 m 312.25° 299.28° Asphalt 0 ft / 0 m 197 ft / 60 m

Approach Navaids

Runway Type Ident Frequency Range Bearing (true) Bearing (mag) Slope Elevation
12 Localiser KO 110.30 MHz 18 nm / 33 km 132.25° 119.28° - 866 ft / 264 m (AMSL)
12 Glidescope KO 110.30 MHz 10 nm / 19 km 132.23° 119.26° 3.00° 866 ft / 264 m (AMSL)
12 DME KO 110.30 MHz 18 nm / 33 km - - - 919 ft / 280 m (AMSL)

Popular Alternatives